BVLO2: Caney River, Bartlesville, OK

                                SHEF ID:       BVLO2     Caney River above Coon Creek at
STATION TYPE:
Regulating: Stage = 13.00, Flow = 14009

PRECIP STAGE STAGE(2) RIV-FLOW BAT-LOAD
in ft ft cfs volt
Ccp-Rev Ccp-Rev Ccp-Rev Ccp-Rev Ccp-Rev
(America/Chicago)
04/30 00:00 0.00 5.68 ---- 2869 12.73
04/30 01:00 0.00 5.68 ---- 2869 12.65
04/30 02:00 0.00 5.68 ---- 2869 12.65
04/30 03:00 0.00 5.68 ---- 2869 12.65
04/30 04:00 0.00 5.67 ---- 2856 12.65
04/30 05:00 0.00 5.67 ---- 2856 12.65
04/30 06:00 0.00 5.67 ---- 2856 12.57
04/30 07:00 0.00 5.67 ---- 2856 12.57
04/30 08:00 0.00 5.67 ---- 2856 12.65
04/30 09:00 0.00 5.66 ---- 2844 13.29
04/30 10:00 0.00 5.66 ---- 2844 13.53
04/30 11:00 0.00 5.66 ---- 2844 13.68
04/30 12:00 0.00 5.66 ---- 2844 13.53
04/30 13:00 0.00 5.66 ---- 2844 13.68
04/30 14:00 0.00 5.65 ---- 2831 13.44
04/30 15:00 0.00 5.64 ---- 2819 13.37
04/30 16:00 0.00 5.61 ---- 2781 13.37
04/30 17:00 0.00 5.57 ---- 2732 13.37
04/30 18:00 0.00 5.52 ---- 2670 13.37
04/30 19:00 0.00 5.47 ---- 2609 13.29
04/30 20:00 0.00 5.40 ---- 2524 13.29
04/30 21:00 0.00 5.35 ---- 2463 12.97
04/30 22:00 0.00 5.29 ---- 2388 12.73
04/30 23:00 ---- ---- ---- ---- ----
Data processed at Fri 01May2026 04:14 GMT

NOTICE: If you are parsing this page

Please convert to using our Data API. Starting early 2026 we will be migrating to: https://water.usace.army.mil with modern pages rendered in JavaScript. When this migration completes you will no longer be able to scrape this page! CWMSDataAPI (CDA)

Timeseries IDs (TSIDs)

TSIDs used from left to right in the data table
BART.Precip-Inc.Total.1Hour.1Hour.Ccp-Rev
BART.Stage.Inst.1Hour.0.Ccp-Rev
BART.Stage-Alt.Inst.1Hour.0.Ccp-Rev
BART.Flow.Inst.1Hour.0.Ccp-Rev
BART.Volt-Battery Load.Inst.1Hour.0.Ccp-Rev

                            

All information presented herein is the property of the government of the United States of America and may be revised or deleted at any time without prior notice. Dissemination of this information without the expressed written consent of the Public Affairs Office, Tulsa District U.S. Army Corps of Engineers is strictly prohibited. These data are gathered electronically and, as presented, have NOT undergone any form of quality control. These data are NOT guaranteed to be valid or correct.